KAUM/AUM METAR and TAF weather

Enter ICAO airport designator
Station Type Date Time Source
KAUM METAR 2022/06/28 14:55 UTC NOAA

KAUM 281455Z AUTO 20005KT 10SM BKN110 18/14 A3017 RMK AO2


Station Type Date Time Source
KAUM Decoded METAR 2022/06/28 14:55 UTC NOAA

Austin Municipal, MN, United States (KAUM) 43-40N 092-56W
Jun 28, 2022 - 10:55 AM EDT / 2022.06.28 1455 UTC
Wind: from the SSW (200 degrees) at 6 MPH (5 KT):0
Visibility: 10 mile(s):0
Sky conditions: mostly cloudy
Temperature: 64 F (18 C)
Dew Point: 57 F (14 C)
Relative Humidity: 77%
Pressure (altimeter): 30.17 in. Hg (1021 hPa)
ob: KAUM 281455Z AUTO 20005KT 10SM BKN110 18/14 A3017 RMK AO2
cycle: 15

Station Type Date Time Source
KAUM TAF UTC NOAA

Error!

Example: see airport list